Dades meteomassalio
Diari Summary for Diciembre 16, 2017 Units:  English    Metric   Both
« Previous Day
Next Day »
Diari Semanal Mensual Anual Personalitzat
  Maxima: Minima: Mijana:
Temperatura: TemperatureC °F 4.4 °F 6.8 °F
Rosada: DewpointC °F 0.0 °F 1.3 °F
Humitat: Humidity % 52 % 68 %
Velocitat del vent: WindSpeedKMH mph 9.3 mph 30.8 mph
Racha vent: WindSpeedGustKMH mph - -
Vent:- - NW
Pressio: PressurehPa in 1015.8 in -
Pluja: 0.0 in    
Historical Graphs
 
 
Tabular Data for Diciembre 16, 2017
Time Temperature Dew Point Pressure Wind Wind Speed Wind Gust Humidity Rainfall Rate (Hourly) solar Conditions
TemperatureC °F DewpointC °F PressurehPa in Calm     Humidity % HourlyPrecipMM in SolarRadiationWatts/m^2 W/m2 Conditions
00:01 6.1 °F 1.6 °F 1016.1 in WNW 40.7 mph 40.7 mph 73 % 0.0 in 0.0 W/m2 RA
00:06 6.1 °F 1.6 °F 1016.1 in NNW 25.9 mph 25.9 mph 73 % 0.0 in 0.0 W/m2 CLR
00:09 6.1 °F 1.6 °F 1016.1 in NW 25.9 mph 25.9 mph 73 % 0.0 in 0.0 W/m2 CLR
00:11 6.1 °F 1.6 °F 1016.1 in North 20.4 mph 20.4 mph 73 % 0.0 in 0.0 W/m2 CLR
00:15 5.6 °F 1.1 °F 1016.1 in NW 30.6 mph 30.6 mph 73 % 0.0 in 0.0 W/m2 CLR
00:20 5.6 °F 1.1 °F 1016.1 in NNW 20.4 mph 20.4 mph 73 % 0.0 in 0.0 W/m2 CLR
00:21 5.6 °F 1.1 °F 1016.1 in NW 29.6 mph 29.6 mph 73 % 0.0 in 0.0 W/m2 CLR
00:22 5.6 °F 1.1 °F 1016.1 in NW 22.2 mph 22.2 mph 73 % 0.0 in 0.0 W/m2 CLR
00:27 5.6 °F 1.1 °F 1016.1 in NNW 31.5 mph 31.5 mph 73 % 0.0 in 0.0 W/m2 CLR
00:33 5.6 °F 1.1 °F 1016.1 in NNW 24.1 mph 26.4 mph 73 % 0.0 in 0.0 W/m2 CLR
00:34 5.6 °F 1.1 °F 1016.1 in NW 31.5 mph 31.5 mph 73 % 0.0 in 0.0 W/m2 CLR
00:37 5.6 °F 1.1 °F 1016.1 in NNW 37.0 mph 37.0 mph 73 % 0.0 in 0.0 W/m2 CLR
00:39 5.6 °F 1.1 °F 1016.1 in NNW 29.6 mph 29.6 mph 73 % 0.0 in 0.0 W/m2 CLR
00:44 5.6 °F 1.1 °F 1016.1 in NW 27.8 mph 27.8 mph 73 % 0.0 in 0.0 W/m2 CLR
00:46 5.6 °F 1.1 °F 1016.1 in NNW 31.5 mph 31.5 mph 73 % 0.0 in 0.0 W/m2 CLR
00:51 5.6 °F 1.1 °F 1016.1 in North 31.5 mph 31.5 mph 73 % 0.0 in 0.0 W/m2 CLR
00:52 5.6 °F 1.1 °F 1016.1 in NNW 35.2 mph 35.2 mph 73 % 0.0 in 0.0 W/m2 CLR
00:57 5.6 °F 1.1 °F 1016.1 in NNW 37.0 mph 37.0 mph 73 % 0.0 in 0.0 W/m2 CLR
00:59 5.6 °F 1.1 °F 1016.1 in NNW 33.3 mph 33.3 mph 73 % 0.0 in 0.0 W/m2 CLR
01:04 5.6 °F 1.1 °F 1016.1 in North 33.3 mph 33.3 mph 73 % 0.0 in 0.0 W/m2 CLR
01:05 5.6 °F 1.1 °F 1016.1 in North 33.3 mph 33.3 mph 73 % 0.0 in 0.0 W/m2 CLR
01:10 5.6 °F 1.1 °F 1016.1 in North 33.8 mph 33.8 mph 73 % 0.0 in 0.0 W/m2 CLR
01:15 6.1 °F 1.6 °F 1016.1 in NNW 25.9 mph 25.9 mph 73 % 0.0 in 0.0 W/m2 CLR
01:16 6.1 °F 1.6 °F 1015.8 in NW 32.2 mph 32.2 mph 73 % 0.0 in 0.0 W/m2 CLR
01:20 5.6 °F 1.1 °F 1015.8 in NNW 31.5 mph 31.5 mph 73 % 0.0 in 0.0 W/m2 CLR
01:21 5.6 °F 1.1 °F 1016.1 in NW 40.7 mph 40.7 mph 73 % 0.0 in 0.0 W/m2 CLR
01:26 6.1 °F 1.4 °F 1016.1 in NNW 37.0 mph 37.0 mph 72 % 0.0 in 0.0 W/m2 CLR
01:27 5.6 °F 0.9 °F 1016.1 in NW 35.2 mph 35.2 mph 72 % 0.0 in 0.0 W/m2 CLR
01:32 5.6 °F 1.1 °F 1015.8 in NNW 35.2 mph 35.2 mph 73 % 0.0 in 0.0 W/m2 CLR
01:33 5.6 °F 1.1 °F 1015.8 in NNW 40.7 mph 40.7 mph 73 % 0.0 in 0.0 W/m2 CLR
01:34 5.6 °F 0.9 °F 1016.1 in NNW 31.5 mph 31.5 mph 72 % 0.0 in 0.0 W/m2 CLR
01:39 5.6 °F 0.9 °F 1016.1 in NNW 42.6 mph 42.6 mph 72 % 0.0 in 0.0 W/m2 CLR
01:40 5.6 °F 0.9 °F 1016.1 in NW 35.2 mph 35.2 mph 72 % 0.0 in 0.0 W/m2 CLR
01:42 5.6 °F 0.9 °F 1016.1 in NNW 31.5 mph 31.5 mph 72 % 0.0 in 0.0 W/m2 CLR
01:47 5.6 °F 0.9 °F 1016.1 in NW 37.0 mph 37.0 mph 72 % 0.0 in 0.0 W/m2 CLR
01:48 5.6 °F 0.9 °F 1016.1 in NW 37.0 mph 37.0 mph 72 % 0.0 in 0.0 W/m2 CLR
01:53 5.6 °F 0.9 °F 1016.1 in NNW 16.7 mph 16.7 mph 72 % 0.0 in 0.0 W/m2 CLR
01:58 5.6 °F 1.1 °F 1016.1 in NNW 35.2 mph 35.2 mph 73 % 0.0 in 0.0 W/m2 CLR
01:59 5.6 °F 1.1 °F 1016.1 in NW 29.6 mph 29.6 mph 73 % 0.0 in 0.0 W/m2 CLR
02:01 5.6 °F 0.9 °F 1016.1 in NNW 44.4 mph 44.4 mph 72 % 0.0 in 0.0 W/m2 CLR
02:05 5.6 °F 0.9 °F 1016.1 in WNW 29.6 mph 29.6 mph 72 % 0.0 in 0.0 W/m2 CLR
02:10 5.6 °F 0.9 °F 1016.5 in NNW 31.5 mph 31.5 mph 72 % 0.0 in 0.0 W/m2 CLR
02:11 5.6 °F 0.9 °F 1016.5 in NNW 31.5 mph 31.5 mph 72 % 0.0 in 0.0 W/m2 CLR
02:16 5.6 °F 0.9 °F 1016.5 in NNW 27.8 mph 27.8 mph 72 % 0.0 in 0.0 W/m2 CLR
02:18 5.6 °F 0.9 °F 1016.5 in NNW 24.1 mph 24.1 mph 72 % 0.0 in 0.0 W/m2 CLR
02:19 5.6 °F 0.9 °F 1016.5 in NW 33.3 mph 33.3 mph 72 % 0.0 in 0.0 W/m2 CLR
02:23 5.6 °F 0.9 °F 1016.5 in NW 20.4 mph 20.4 mph 72 % 0.0 in 0.0 W/m2 CLR
02:28 5.6 °F 0.9 °F 1016.5 in NW 24.1 mph 24.1 mph 72 % 0.0 in 0.0 W/m2 CLR
02:29 5.6 °F 0.7 °F 1016.5 in NW 24.1 mph 24.1 mph 71 % 0.0 in 0.0 W/m2 CLR
02:33 5.6 °F 0.9 °F 1016.1 in NW 31.5 mph 31.5 mph 72 % 0.0 in 0.0 W/m2 CLR
02:34 5.6 °F 0.9 °F 1016.1 in NW 24.1 mph 24.1 mph 72 % 0.0 in 0.0 W/m2 CLR
02:39 5.6 °F 0.9 °F 1016.1 in NW 22.2 mph 22.2 mph 72 % 0.0 in 0.0 W/m2 CLR
02:41 5.6 °F 0.9 °F 1016.5 in NW 25.9 mph 25.9 mph 72 % 0.0 in 0.0 W/m2 CLR
02:46 5.6 °F 0.9 °F 1016.5 in NW 22.2 mph 22.2 mph 72 % 0.0 in 0.0 W/m2 CLR
02:51 5.6 °F 0.9 °F 1016.8 in NW 24.1 mph 24.1 mph 72 % 0.0 in 0.0 W/m2 CLR
02:52 5.6 °F 0.9 °F 1016.8 in NNW 31.5 mph 31.5 mph 72 % 0.0 in 0.0 W/m2 CLR
02:57 5.6 °F 0.9 °F 1016.8 in North 29.0 mph 29.0 mph 72 % 0.0 in 0.0 W/m2 CLR
03:02 5.0 °F 0.4 °F 1016.8 in NW 25.9 mph 25.9 mph 72 % 0.0 in 0.0 W/m2 CLR
03:07 5.6 °F 0.9 °F 1016.8 in NW 33.3 mph 33.3 mph 72 % 0.0 in 0.0 W/m2 CLR
03:12 5.6 °F 0.9 °F 1016.8 in NNW 31.5 mph 31.5 mph 72 % 0.0 in 0.0 W/m2 CLR
03:14 5.6 °F 0.9 °F 1016.8 in NW 29.6 mph 29.6 mph 72 % 0.0 in 0.0 W/m2 CLR
03:17 5.6 °F 0.9 °F 1017.2 in NW 27.8 mph 27.8 mph 72 % 0.0 in 0.0 W/m2 CLR
03:21 5.6 °F 0.9 °F 1017.2 in NW 35.4 mph 35.4 mph 72 % 0.0 in 0.0 W/m2 CLR
03:23 5.6 °F 0.9 °F 1017.2 in NW 22.5 mph 22.5 mph 72 % 0.0 in 0.0 W/m2 CLR
03:24 5.6 °F 0.9 °F 1017.2 in NNW 27.8 mph 27.8 mph 72 % 0.0 in 0.0 W/m2 CLR
03:29 5.6 °F 0.9 °F 1016.8 in WNW 29.0 mph 29.0 mph 72 % 0.0 in 0.0 W/m2 CLR
03:31 5.6 °F 0.9 °F 1016.8 in West 25.9 mph 25.9 mph 72 % 0.0 in 0.0 W/m2 CLR
03:36 5.6 °F 0.9 °F 1017.2 in NW 25.7 mph 25.7 mph 72 % 0.0 in 0.0 W/m2 CLR
03:37 5.6 °F 0.9 °F 1017.2 in NW 25.7 mph 25.7 mph 72 % 0.0 in 0.0 W/m2 CLR
03:38 5.6 °F 1.1 °F 1017.2 in NW 33.3 mph 33.3 mph 73 % 0.0 in 0.0 W/m2 CLR
03:42 5.6 °F 1.1 °F 1017.2 in NW 25.9 mph 25.9 mph 73 % 0.0 in 0.0 W/m2 CLR
03:47 5.6 °F 1.1 °F 1017.2 in NW 24.1 mph 24.1 mph 73 % 0.0 in 0.0 W/m2 CLR
03:48 5.6 °F 1.1 °F 1017.2 in NNW 29.6 mph 29.6 mph 73 % 0.0 in 0.0 W/m2 CLR
03:49 5.6 °F 1.1 °F 1017.2 in NNW 27.8 mph 27.8 mph 73 % 0.0 in 0.0 W/m2 CLR
03:53 5.6 °F 1.1 °F 1017.5 in WNW 24.1 mph 24.1 mph 73 % 0.0 in 0.0 W/m2 CLR
03:54 5.6 °F 1.1 °F 1017.5 in NW 27.8 mph 27.8 mph 73 % 0.0 in 0.0 W/m2 CLR
03:59 5.6 °F 1.1 °F 1017.5 in NNW 31.5 mph 31.5 mph 73 % 0.0 in 0.0 W/m2 CLR
04:00 5.6 °F 1.1 °F 1017.5 in NW 31.5 mph 31.5 mph 73 % 0.0 in 0.0 W/m2 CLR
04:06 5.6 °F 1.1 °F 1017.5 in NW 33.3 mph 33.3 mph 73 % 0.0 in 0.0 W/m2 CLR
04:12 5.6 °F 1.1 °F 1017.5 in NW 25.7 mph 25.7 mph 73 % 0.0 in 0.0 W/m2 CLR
04:17 5.6 °F 1.1 °F 1017.5 in NW 27.8 mph 27.8 mph 73 % 0.0 in 0.0 W/m2 CLR
04:22 5.6 °F 1.1 °F 1017.5 in NW 29.6 mph 29.6 mph 73 % 0.0 in 0.0 W/m2 CLR
04:26 5.6 °F 0.9 °F 1017.8 in NW 20.9 mph 20.9 mph 72 % 0.0 in 0.0 W/m2 CLR
04:27 5.6 °F 0.9 °F 1017.5 in NW 20.4 mph 20.4 mph 72 % 0.0 in 0.0 W/m2 CLR
04:32 5.0 °F 0.4 °F 1017.8 in NW 22.5 mph 22.5 mph 72 % 0.0 in 0.0 W/m2 CLR
04:37 5.0 °F 0.4 °F 1017.8 in NW 27.8 mph 27.8 mph 72 % 0.0 in 0.0 W/m2 CLR
04:38 5.0 °F 0.4 °F 1017.8 in NW 27.8 mph 27.8 mph 72 % 0.0 in 0.0 W/m2 CLR
04:39 5.0 °F 0.4 °F 1017.8 in NNW 24.1 mph 24.1 mph 72 % 0.0 in 0.0 W/m2 CLR
04:43 5.0 °F 0.4 °F 1017.8 in NW 20.4 mph 20.4 mph 72 % 0.0 in 0.0 W/m2 CLR
04:46 5.0 °F 0.6 °F 1017.8 in NW 24.1 mph 24.1 mph 73 % 0.0 in 0.0 W/m2 CLR
04:49 5.0 °F 0.6 °F 1017.8 in NW 20.4 mph 20.4 mph 73 % 0.0 in 0.0 W/m2 CLR
04:52 5.0 °F 0.4 °F 1017.8 in NW 24.1 mph 24.1 mph 72 % 0.0 in 0.0 W/m2 CLR
04:55 5.0 °F 0.4 °F 1017.8 in NW 16.1 mph 16.1 mph 72 % 0.0 in 0.0 W/m2 CLR
05:00 5.0 °F 0.6 °F 1018.2 in NW 16.7 mph 16.7 mph 73 % 0.0 in 0.0 W/m2 CLR
05:02 5.0 °F 0.6 °F 1018.2 in WNW 18.5 mph 18.5 mph 73 % 0.0 in 0.0 W/m2 CLR
05:06 4.4 °F 0.0 °F 1018.2 in NW 20.9 mph 20.9 mph 73 % 0.0 in 0.0 W/m2 CLR
05:10 4.4 °F 0.2 °F 1018.2 in NW 18.5 mph 18.5 mph 74 % 0.0 in 0.0 W/m2 CLR
05:11 4.4 °F 0.2 °F 1018.2 in NW 18.5 mph 18.5 mph 74 % 0.0 in 0.0 W/m2 CLR
05:16 5.0 °F 0.7 °F 1018.2 in NNW 13.0 mph 13.0 mph 74 % 0.0 in 0.0 W/m2 CLR
05:17 5.0 °F 0.7 °F 1018.5 in NW 17.7 mph 17.7 mph 74 % 0.0 in 0.0 W/m2 CLR
05:22 4.4 °F 0.2 °F 1018.2 in WNW 20.4 mph 20.4 mph 74 % 0.0 in 0.0 W/m2 CLR
05:23 4.4 °F 0.2 °F 1018.2 in NW 20.4 mph 20.4 mph 74 % 0.0 in 0.0 W/m2 CLR
05:28 5.0 °F 0.7 °F 1018.2 in NW 37.0 mph 37.0 mph 74 % 0.0 in 0.0 W/m2 CLR
05:33 5.0 °F 0.7 °F 1018.2 in NW 24.1 mph 24.1 mph 74 % 0.0 in 0.0 W/m2 CLR
05:35 5.0 °F 0.7 °F 1018.2 in NW 29.6 mph 29.6 mph 74 % 0.0 in 0.0 W/m2 CLR
05:38 5.0 °F 0.7 °F 1018.2 in NNW 27.8 mph 27.8 mph 74 % 0.0 in 0.0 W/m2 CLR
05:43 5.0 °F 0.7 °F 1018.2 in NW 33.3 mph 33.3 mph 74 % 0.0 in 0.0 W/m2 CLR
05:44 5.0 °F 0.6 °F 1018.2 in NW 33.3 mph 33.3 mph 73 % 0.0 in 0.0 W/m2 CLR
05:46 5.0 °F 0.7 °F 1018.2 in NNW 33.3 mph 33.3 mph 74 % 0.0 in 0.0 W/m2 CLR
05:49 5.0 °F 0.7 °F 1018.2 in NW 32.2 mph 32.2 mph 74 % 0.0 in 0.0 W/m2 CLR
05:52 5.0 °F 0.7 °F 1018.2 in NW 35.2 mph 35.2 mph 74 % 0.0 in 0.0 W/m2 CLR
05:54 5.6 °F 1.3 °F 1018.2 in NW 40.7 mph 40.7 mph 74 % 0.0 in 0.0 W/m2 CLR
05:58 5.6 °F 1.3 °F 1018.2 in NW 42.6 mph 42.6 mph 74 % 0.0 in 0.0 W/m2 CLR
06:01 5.6 °F 1.3 °F 1018.2 in NW 38.6 mph 38.6 mph 74 % 0.0 in 0.0 W/m2 CLR
06:06 5.6 °F 1.1 °F 1018.2 in NW 38.9 mph 38.9 mph 73 % 0.0 in 0.0 W/m2 CLR
06:09 5.6 °F 1.1 °F 1018.5 in NW 42.6 mph 42.6 mph 73 % 0.0 in 0.0 W/m2 CLR
06:14 5.6 °F 1.1 °F 1018.5 in NW 29.6 mph 29.6 mph 73 % 0.0 in 0.0 W/m2 CLR
06:18 5.6 °F 1.1 °F 1018.5 in NNW 35.2 mph 35.2 mph 73 % 0.0 in 0.0 W/m2 CLR
06:19 5.6 °F 1.1 °F 1018.5 in NW 33.3 mph 33.3 mph 73 % 0.0 in 0.0 W/m2 CLR
06:20 5.6 °F 1.1 °F 1018.5 in NW 30.6 mph 30.6 mph 73 % 0.0 in 0.0 W/m2 CLR
06:25 5.6 °F 1.1 °F 1018.5 in NW 29.6 mph 29.6 mph 73 % 0.0 in 0.0 W/m2 CLR
06:30 5.6 °F 1.1 °F 1018.8 in NW 29.6 mph 29.6 mph 73 % 0.0 in 0.0 W/m2 CLR
06:35 5.0 °F 0.6 °F 1018.8 in NNW 25.9 mph 25.9 mph 73 % 0.0 in 0.0 W/m2 CLR
06:40 5.0 °F 0.6 °F 1018.8 in NW 25.9 mph 25.9 mph 73 % 0.0 in 0.0 W/m2 CLR
06:41 5.0 °F 0.6 °F 1018.8 in NNW 30.6 mph 30.6 mph 73 % 0.0 in 0.0 W/m2 CLR
06:46 5.0 °F 0.6 °F 1018.8 in NNW 31.5 mph 31.5 mph 73 % 0.0 in 0.0 W/m2 CLR
06:51 5.0 °F 0.6 °F 1018.8 in NNW 25.9 mph 25.9 mph 73 % 0.0 in 0.0 W/m2 CLR
06:56 5.0 °F 0.6 °F 1018.8 in NNW 19.3 mph 19.3 mph 73 % 0.0 in 0.0 W/m2 CLR
06:58 5.0 °F 0.6 °F 1018.8 in NW 24.1 mph 24.1 mph 73 % 0.0 in 0.0 W/m2 CLR
07:03 5.0 °F 0.4 °F 1018.8 in NW 24.1 mph 24.1 mph 72 % 0.0 in 0.0 W/m2 CLR
07:08 5.0 °F 0.4 °F 1019.2 in NW 20.4 mph 20.4 mph 72 % 0.0 in 0.0 W/m2 CLR
07:09 5.0 °F 0.4 °F 1019.2 in NW 18.5 mph 18.5 mph 72 % 0.0 in 0.0 W/m2 CLR
07:10 5.0 °F 0.4 °F 1019.2 in WNW 18.5 mph 18.5 mph 72 % 0.0 in 0.0 W/m2 CLR
07:15 5.0 °F 0.4 °F 1019.2 in WNW 11.1 mph 11.1 mph 72 % 0.0 in 0.0 W/m2 CLR
07:16 5.0 °F 0.4 °F 1019.5 in WNW 14.5 mph 14.5 mph 72 % 0.0 in 0.0 W/m2 CLR
07:18 5.0 °F 0.4 °F 1019.5 in NW 18.5 mph 18.5 mph 72 % 0.0 in 0.0 W/m2 CLR
07:22 5.0 °F 0.4 °F 1019.5 in NW 14.8 mph 14.8 mph 72 % 0.0 in 0.0 W/m2 CLR
07:23 5.0 °F 0.4 °F 1019.5 in WNW 14.8 mph 14.8 mph 72 % 0.0 in 0.0 W/m2 CLR
07:28 5.0 °F 0.2 °F 1019.5 in West 14.8 mph 14.8 mph 71 % 0.0 in 0.0 W/m2 CLR
07:29 5.0 °F 0.2 °F 1019.5 in NW 14.5 mph 14.5 mph 71 % 0.0 in 0.0 W/m2 CLR
07:34 5.0 °F 0.2 °F 1019.9 in NW 12.9 mph 12.9 mph 71 % 0.0 in 0.0 W/m2 CLR
07:39 5.0 °F 0.2 °F 1019.9 in NW 16.7 mph 16.7 mph 71 % 0.0 in 0.0 W/m2 CLR
07:40 5.0 °F 0.2 °F 1019.9 in WNW 16.7 mph 16.7 mph 71 % 0.0 in 0.0 W/m2 CLR
07:42 5.0 °F 0.2 °F 1019.9 in NW 14.8 mph 14.8 mph 71 % 0.0 in 0.0 W/m2 CLR
07:45 5.0 °F 0.2 °F 1019.9 in NW 27.8 mph 27.8 mph 71 % 0.0 in 0.0 W/m2 CLR
07:50 5.0 °F 0.2 °F 1019.9 in NW 20.4 mph 20.4 mph 71 % 0.0 in 0.0 W/m2 CLR
07:55 5.0 °F 0.2 °F 1019.9 in WNW 20.4 mph 20.4 mph 71 % 0.0 in 0.0 W/m2 CLR
08:00 5.6 °F 0.7 °F 1020.2 in NW 18.5 mph 18.5 mph 71 % 0.0 in 0.0 W/m2 CLR
08:01 5.6 °F 0.7 °F 1020.2 in NW 20.9 mph 20.9 mph 71 % 0.0 in 0.0 W/m2 CLR
08:04 5.6 °F 0.5 °F 1019.9 in WNW 24.1 mph 24.1 mph 70 % 0.0 in 0.0 W/m2 CLR
08:06 5.6 °F 0.5 °F 1020.2 in NW 16.7 mph 16.7 mph 70 % 0.0 in 0.0 W/m2 CLR
08:11 5.6 °F 0.5 °F 1020.2 in WNW 27.8 mph 27.8 mph 70 % 0.0 in 0.0 W/m2 OVC
08:12 5.6 °F 0.5 °F 1020.2 in WNW 20.4 mph 20.4 mph 70 % 0.0 in 0.0 W/m2 OVC
08:17 5.6 °F 0.5 °F 1020.2 in WNW 24.1 mph 24.1 mph 70 % 0.0 in 0.0 W/m2 OVC
08:22 5.6 °F 0.5 °F 1020.2 in NW 22.2 mph 22.2 mph 70 % 0.0 in 5.0 W/m2 OVC
08:27 5.6 °F 0.5 °F 1020.5 in WNW 22.2 mph 22.2 mph 70 % 0.0 in 5.0 W/m2 OVC
08:28 5.6 °F 0.5 °F 1020.5 in NW 22.5 mph 22.5 mph 70 % 0.0 in 5.0 W/m2 OVC
08:30 5.6 °F 0.7 °F 1020.5 in WNW 20.4 mph 20.4 mph 71 % 0.0 in 7.0 W/m2 BKN
08:35 5.6 °F 0.7 °F 1020.5 in NW 27.8 mph 27.8 mph 71 % 0.0 in 7.0 W/m2 BKN
08:39 5.6 °F 0.7 °F 1020.5 in NW 24.1 mph 24.1 mph 71 % 0.0 in 9.0 W/m2 BKN
08:41 5.6 °F 0.9 °F 1020.9 in NW 22.5 mph 22.5 mph 72 % 0.0 in 11.0 W/m2 BKN
08:46 5.6 °F 0.9 °F 1020.9 in NNW 25.9 mph 25.9 mph 72 % 0.0 in 14.0 W/m2 BKN
08:47 5.6 °F 0.9 °F 1020.9 in NNW 25.9 mph 25.9 mph 72 % 0.0 in 14.0 W/m2 BKN
08:52 5.6 °F 0.9 °F 1020.9 in WNW 22.2 mph 22.2 mph 72 % 0.0 in 19.0 W/m2 BKN
08:57 5.6 °F 0.9 °F 1020.9 in NW 29.6 mph 29.6 mph 72 % 0.0 in 23.0 W/m2 BKN
08:58 5.6 °F 0.9 °F 1020.9 in NW 29.0 mph 29.0 mph 72 % 0.0 in 23.0 W/m2 BKN
09:03 6.1 °F 1.2 °F 1020.9 in NNW 31.5 mph 31.5 mph 71 % 0.0 in 26.0 W/m2 BKN
09:08 6.1 °F 1.4 °F 1020.9 in NNW 33.3 mph 33.3 mph 72 % 0.0 in 33.0 W/m2 BKN
09:10 6.1 °F 1.2 °F 1021.2 in NW 29.6 mph 29.6 mph 71 % 0.0 in 39.0 W/m2 BKN
09:15 6.1 °F 1.2 °F 1021.2 in NW 31.5 mph 31.5 mph 71 % 0.0 in 46.0 W/m2 SCT
09:20 6.1 °F 1.2 °F 1021.2 in NNW 24.1 mph 24.1 mph 71 % 0.0 in 69.0 W/m2 SCT
09:21 6.1 °F 1.2 °F 1021.2 in NNW 24.1 mph 24.1 mph 71 % 0.0 in 69.0 W/m2 SCT
09:25 6.1 °F 1.2 °F 1021.2 in NW 31.5 mph 31.5 mph 71 % 0.0 in 47.0 W/m2 SCT
09:27 6.1 °F 1.2 °F 1021.2 in NW 20.4 mph 20.4 mph 71 % 0.0 in 44.0 W/m2 SCT
09:31 6.1 °F 1.2 °F 1021.6 in NNW 22.2 mph 22.2 mph 71 % 0.0 in 91.0 W/m2 SCT
09:34 6.1 °F 1.2 °F 1021.6 in WNW 20.4 mph 20.4 mph 71 % 0.0 in 56.0 W/m2 SCT
09:37 6.1 °F 1.2 °F 1021.6 in WNW 24.1 mph 24.1 mph 71 % 0.0 in 46.0 W/m2 SCT
09:39 6.1 °F 1.1 °F 1021.6 in NW 25.9 mph 25.9 mph 70 % 0.0 in 51.0 W/m2 SCT
09:44 6.1 °F 1.1 °F 1021.6 in NW 18.5 mph 18.5 mph 70 % 0.0 in 153.0 W/m2 FEW
09:45 6.1 °F 1.1 °F 1021.9 in WNW 20.4 mph 20.4 mph 70 % 0.0 in 165.0 W/m2 FEW
09:50 6.7 °F 1.6 °F 1021.9 in NW 20.9 mph 20.9 mph 70 % 0.0 in 192.0 W/m2 CLR
09:51 6.7 °F 1.6 °F 1021.9 in NW 24.1 mph 24.1 mph 70 % 0.0 in 192.0 W/m2 CLR
09:56 6.7 °F 1.4 °F 1021.9 in NNW 25.9 mph 25.9 mph 69 % 0.0 in 163.0 W/m2 CLR
09:57 6.7 °F 1.6 °F 1021.9 in NNW 27.4 mph 27.4 mph 70 % 0.0 in 163.0 W/m2 CLR
10:02 6.7 °F 1.4 °F 1021.9 in NW 24.1 mph 24.1 mph 69 % 0.0 in 134.0 W/m2 CLR
10:07 6.7 °F 1.4 °F 1022.2 in NW 22.2 mph 22.2 mph 69 % 0.0 in 181.0 W/m2 CLR
10:09 6.7 °F 1.4 °F 1022.2 in NW 22.2 mph 22.2 mph 69 % 0.0 in 163.0 W/m2 CLR
10:13 7.2 °F 1.7 °F 1022.2 in NW 16.7 mph 16.7 mph 68 % 0.0 in 230.0 W/m2 CLR
10:15 7.2 °F 1.9 °F 1022.2 in NNW 18.5 mph 18.5 mph 69 % 0.0 in 237.0 W/m2 CLR
10:20 7.2 °F 1.5 °F 1022.2 in WNW 22.2 mph 22.2 mph 67 % 0.0 in 248.0 W/m2 CLR
10:21 7.2 °F 1.7 °F 1022.2 in NW 22.2 mph 22.2 mph 68 % 0.0 in 250.0 W/m2 CLR
10:26 7.2 °F 1.5 °F 1022.6 in NW 18.5 mph 18.5 mph 67 % 0.0 in 281.0 W/m2 CLR
10:28 7.2 °F 1.5 °F 1022.2 in NW 20.9 mph 20.9 mph 67 % 0.0 in 257.0 W/m2 CLR
10:33 7.8 °F 2.1 °F 1022.2 in NW 29.6 mph 29.6 mph 67 % 0.0 in 345.0 W/m2 CLR
10:36 7.8 °F 2.1 °F 1022.2 in WNW 27.4 mph 27.4 mph 67 % 0.0 in 397.0 W/m2 CLR
10:41 8.3 °F 2.6 °F 1022.6 in NNW 29.0 mph 29.0 mph 67 % 0.0 in 401.0 W/m2 CLR
10:42 8.3 °F 2.6 °F 1022.6 in NW 33.8 mph 33.8 mph 67 % 0.0 in 404.0 W/m2 CLR
10:47 8.3 °F 2.6 °F 1022.6 in North 37.0 mph 37.0 mph 67 % 0.0 in 390.0 W/m2 CLR
10:49 8.3 °F 2.6 °F 1022.6 in NNW 33.3 mph 33.3 mph 67 % 0.0 in 141.0 W/m2 CLR
10:53 8.3 °F 2.8 °F 1022.6 in NW 29.6 mph 29.6 mph 68 % 0.0 in 262.0 W/m2 CLR
10:58 8.3 °F 2.6 °F 1022.6 in NW 33.3 mph 33.3 mph 67 % 0.0 in 199.0 W/m2 CLR
11:00 8.3 °F 2.6 °F 1022.6 in NW 35.2 mph 35.2 mph 67 % 0.0 in 246.0 W/m2 CLR
11:04 8.3 °F 2.6 °F 1022.6 in NW 42.6 mph 42.6 mph 67 % 0.0 in 183.0 W/m2 CLR
11:05 8.3 °F 2.6 °F 1022.6 in NW 38.9 mph 38.9 mph 67 % 0.0 in 200.0 W/m2 CLR
11:10 8.3 °F 2.6 °F 1022.6 in NNW 35.2 mph 35.2 mph 67 % 0.0 in 218.0 W/m2 CLR
11:15 8.3 °F 2.6 °F 1022.6 in NNW 27.4 mph 27.4 mph 67 % 0.0 in 257.0 W/m2 CLR
11:20 8.9 °F 2.9 °F 1022.6 in NW 31.5 mph 31.5 mph 66 % 0.0 in 439.0 W/m2 CLR
11:21 8.9 °F 2.9 °F 1022.6 in North 29.6 mph 29.6 mph 66 % 0.0 in 439.0 W/m2 CLR
11:22 8.9 °F 3.1 °F 1022.6 in North 33.3 mph 33.3 mph 67 % 0.0 in 439.0 W/m2 CLR
11:27 8.9 °F 2.9 °F 1022.6 in NNW 35.2 mph 35.2 mph 66 % 0.0 in 482.0 W/m2 CLR
11:32 8.9 °F 2.7 °F 1022.6 in NNW 38.9 mph 38.9 mph 65 % 0.0 in 455.0 W/m2 CLR
11:37 8.9 °F 2.7 °F 1022.6 in NNW 29.6 mph 29.6 mph 65 % 0.0 in 373.0 W/m2 CLR
11:38 8.9 °F 2.7 °F 1022.6 in NNW 31.5 mph 31.5 mph 65 % 0.0 in 360.0 W/m2 CLR
11:39 8.9 °F 2.7 °F 1022.6 in NW 33.8 mph 33.8 mph 65 % 0.0 in 327.0 W/m2 CLR
11:43 8.9 °F 2.7 °F 1022.9 in NNW 31.5 mph 31.5 mph 65 % 0.0 in 434.0 W/m2 CLR
11:46 9.4 °F 2.9 °F 1022.6 in NW 37.0 mph 37.0 mph 64 % 0.0 in 422.0 W/m2 CLR
11:51 9.4 °F 2.9 °F 1022.6 in North 40.7 mph 40.7 mph 64 % 0.0 in 471.0 W/m2 CLR
11:52 9.4 °F 2.9 °F 1022.9 in North 40.7 mph 40.7 mph 64 % 0.0 in 471.0 W/m2 CLR
11:56 9.4 °F 2.9 °F 1022.9 in NNW 30.6 mph 30.6 mph 64 % 0.0 in 211.0 W/m2 CLR
12:01 9.4 °F 2.9 °F 1022.9 in North 38.9 mph 38.9 mph 64 % 0.0 in 107.0 W/m2 CLR
12:03 8.9 °F 2.7 °F 1022.6 in North 29.6 mph 29.6 mph 65 % 0.0 in 134.0 W/m2 CLR
12:07 8.9 °F 2.7 °F 1022.9 in North 40.7 mph 40.7 mph 65 % 0.0 in 141.0 W/m2 CLR
12:10 8.9 °F 2.7 °F 1022.6 in North 42.6 mph 42.6 mph 65 % 0.0 in 141.0 W/m2 CLR
12:13 8.9 °F 2.7 °F 1022.6 in North 43.4 mph 43.4 mph 65 % 0.0 in 141.0 W/m2 CLR
12:17 8.9 °F 2.7 °F 1022.6 in North 50.0 mph 50.0 mph 65 % 0.0 in 438.0 W/m2 CLR
12:20 8.9 °F 2.7 °F 1022.6 in North 38.9 mph 38.9 mph 65 % 0.0 in 432.0 W/m2 CLR
12:24 9.4 °F 2.9 °F 1022.6 in North 27.8 mph 27.8 mph 64 % 0.0 in 438.0 W/m2 CLR
12:26 9.4 °F 2.9 °F 1022.6 in NNW 37.0 mph 37.0 mph 64 % 0.0 in 364.0 W/m2 CLR
12:31 9.4 °F 2.7 °F 1022.6 in North 27.8 mph 27.8 mph 63 % 0.0 in 431.0 W/m2 CLR
12:36 9.4 °F 2.5 °F 1022.6 in North 29.6 mph 29.6 mph 62 % 0.0 in 441.0 W/m2 CLR
12:37 9.4 °F 2.3 °F 1022.6 in North 31.5 mph 31.5 mph 61 % 0.0 in 432.0 W/m2 CLR
12:42 9.4 °F 2.5 °F 1022.6 in NW 25.9 mph 25.9 mph 62 % 0.0 in 438.0 W/m2 CLR
12:44 9.4 °F 2.5 °F 1022.6 in NNW 22.5 mph 22.5 mph 62 % 0.0 in 446.0 W/m2 CLR
12:49 10.0 °F 2.6 °F 1022.6 in NNW 42.6 mph 42.6 mph 60 % 0.0 in 404.0 W/m2 CLR
12:50 10.0 °F 2.6 °F 1022.6 in North 42.6 mph 42.6 mph 60 % 0.0 in 450.0 W/m2 CLR
12:55 10.0 °F 2.8 °F 1022.6 in NNW 31.5 mph 31.5 mph 61 % 0.0 in 443.0 W/m2 CLR
12:56 9.4 °F 2.3 °F 1022.6 in NNW 35.4 mph 35.4 mph 61 % 0.0 in 438.0 W/m2 CLR
13:00 10.0 °F 2.6 °F 1022.6 in North 40.2 mph 40.2 mph 60 % 0.0 in 438.0 W/m2 CLR
13:05 10.0 °F 2.8 °F 1022.6 in NW 27.4 mph 27.4 mph 61 % 0.0 in 438.0 W/m2 CLR
13:06 10.0 °F 2.8 °F 1022.6 in NNW 40.2 mph 40.2 mph 61 % 0.0 in 439.0 W/m2 CLR
13:08 10.6 °F 3.1 °F 1022.6 in NNW 42.6 mph 42.6 mph 60 % 0.0 in 434.0 W/m2 CLR
13:13 10.0 °F 3.1 °F 1022.6 in NNW 44.4 mph 44.4 mph 62 % 0.0 in 439.0 W/m2 CLR
13:14 10.0 °F 2.8 °F 1022.6 in NNW 42.6 mph 42.6 mph 61 % 0.0 in 434.0 W/m2 CLR
13:19 10.0 °F 2.6 °F 1022.6 in North 46.3 mph 46.3 mph 60 % 0.0 in 445.0 W/m2 CLR
13:20 10.0 °F 2.6 °F 1022.6 in North 46.3 mph 46.3 mph 60 % 0.0 in 445.0 W/m2 CLR
13:21 10.0 °F 2.8 °F 1022.6 in North 42.6 mph 42.6 mph 61 % 0.0 in 439.0 W/m2 CLR
13:26 10.0 °F 2.6 °F 1022.6 in NNW 42.6 mph 42.6 mph 60 % 0.0 in 429.0 W/m2 CLR
13:28 10.6 °F 3.1 °F 1022.6 in North 46.3 mph 46.3 mph 60 % 0.0 in 427.0 W/m2 CLR
13:31 10.6 °F 2.9 °F 1022.6 in NNW 42.6 mph 42.6 mph 59 % 0.0 in 425.0 W/m2 CLR
13:36 10.6 °F 3.1 °F 1022.6 in North 44.4 mph 44.4 mph 60 % 0.0 in 418.0 W/m2 CLR
13:38 10.6 °F 3.1 °F 1022.6 in North 42.6 mph 42.6 mph 60 % 0.0 in 420.0 W/m2 CLR
13:39 10.6 °F 2.9 °F 1022.6 in North 42.6 mph 42.6 mph 59 % 0.0 in 420.0 W/m2 CLR
13:43 10.6 °F 2.9 °F 1022.2 in NNW 46.3 mph 46.3 mph 59 % 0.0 in 418.0 W/m2 CLR
13:48 10.6 °F 2.9 °F 1022.2 in NNW 37.0 mph 37.0 mph 59 % 0.0 in 415.0 W/m2 CLR
13:52 10.6 °F 2.6 °F 1022.2 in North 40.7 mph 40.7 mph 58 % 0.0 in 410.0 W/m2 CLR
13:55 10.6 °F 2.6 °F 1022.2 in North 43.4 mph 43.4 mph 58 % 0.0 in 406.0 W/m2 CLR
13:59 10.6 °F 2.4 °F 1022.2 in North 42.6 mph 42.6 mph 57 % 0.0 in 401.0 W/m2 CLR
14:02 10.6 °F 2.4 °F 1022.2 in NNE 37.0 mph 37.0 mph 57 % 0.0 in 397.0 W/m2 CLR
14:07 10.6 °F 2.4 °F 1022.2 in North 40.7 mph 40.7 mph 57 % 0.0 in 394.0 W/m2 CLR
14:08 10.6 °F 2.1 °F 1022.2 in NNW 37.0 mph 37.0 mph 56 % 0.0 in 392.0 W/m2 CLR
14:13 11.1 °F 2.7 °F 1022.2 in NNW 40.7 mph 40.7 mph 56 % 0.0 in 390.0 W/m2 CLR
14:18 10.6 °F 2.4 °F 1022.2 in NW 33.8 mph 33.8 mph 57 % 0.0 in 381.0 W/m2 CLR
14:19 10.6 °F 2.4 °F 1022.2 in North 38.9 mph 38.9 mph 57 % 0.0 in 381.0 W/m2 CLR
14:24 10.6 °F 2.1 °F 1022.2 in North 42.6 mph 42.6 mph 56 % 0.0 in 374.0 W/m2 CLR
14:26 10.6 °F 2.1 °F 1022.2 in North 42.6 mph 42.6 mph 56 % 0.0 in 371.0 W/m2 CLR
14:31 10.6 °F 2.1 °F 1022.2 in North 42.6 mph 42.6 mph 56 % 0.0 in 376.0 W/m2 CLR
14:35 10.6 °F 2.1 °F 1022.2 in NNW 38.6 mph 38.6 mph 56 % 0.0 in 362.0 W/m2 CLR
14:38 11.1 °F 2.2 °F 1022.2 in NNW 40.7 mph 40.7 mph 54 % 0.0 in 357.0 W/m2 CLR
14:41 11.1 °F 2.4 °F 1022.2 in NNE 50.0 mph 50.0 mph 55 % 0.0 in 350.0 W/m2 CLR
14:45 11.1 °F 2.4 °F 1022.2 in North 40.7 mph 40.7 mph 55 % 0.0 in 345.0 W/m2 CLR
14:49 11.1 °F 2.4 °F 1022.2 in North 42.6 mph 42.6 mph 55 % 0.0 in 338.0 W/m2 CLR
14:51 11.1 °F 2.4 °F 1022.2 in North 50.0 mph 50.0 mph 55 % 0.0 in 336.0 W/m2 CLR
14:56 10.6 °F 1.9 °F 1022.2 in NNW 53.7 mph 53.7 mph 55 % 0.0 in 325.0 W/m2 CLR
15:01 11.1 °F 2.4 °F 1022.2 in North 33.3 mph 33.3 mph 55 % 0.0 in 316.0 W/m2 CLR
15:06 11.1 °F 2.4 °F 1022.2 in NNW 50.0 mph 50.0 mph 55 % 0.0 in 306.0 W/m2 CLR
15:09 11.1 °F 2.2 °F 1022.2 in North 40.7 mph 40.7 mph 54 % 0.0 in 302.0 W/m2 CLR
15:12 11.1 °F 1.9 °F 1022.2 in North 37.0 mph 37.0 mph 53 % 0.0 in 299.0 W/m2 CLR
15:17 11.1 °F 1.9 °F 1022.6 in NNW 42.6 mph 42.6 mph 53 % 0.0 in 287.0 W/m2 CLR
15:18 10.6 °F 1.4 °F 1022.6 in North 46.3 mph 46.3 mph 53 % 0.0 in 285.0 W/m2 CLR
15:22 10.6 °F 1.4 °F 1022.6 in NNW 42.6 mph 42.6 mph 53 % 0.0 in 274.0 W/m2 CLR
15:25 10.6 °F 1.4 °F 1022.6 in North 42.6 mph 42.6 mph 53 % 0.0 in 267.0 W/m2 CLR
15:30 10.6 °F 1.1 °F 1022.6 in North 48.1 mph 48.1 mph 52 % 0.0 in 258.0 W/m2 CLR
15:35 10.6 °F 1.6 °F 1022.6 in North 42.6 mph 42.6 mph 54 % 0.0 in 243.0 W/m2 CLR
15:36 10.6 °F 1.4 °F 1022.6 in NNW 55.5 mph 55.5 mph 53 % 0.0 in 243.0 W/m2 CLR
15:41 10.6 °F 1.6 °F 1022.6 in NNW 37.0 mph 37.0 mph 54 % 0.0 in 227.0 W/m2 CLR
15:42 10.6 °F 1.6 °F 1022.6 in North 37.0 mph 37.0 mph 54 % 0.0 in 225.0 W/m2 CLR
15:48 10.6 °F 1.6 °F 1022.6 in NNW 29.6 mph 29.6 mph 54 % 0.0 in 209.0 W/m2 CLR
15:53 10.0 °F 0.8 °F 1022.9 in North 55.5 mph 55.5 mph 53 % 0.0 in 193.0 W/m2 CLR
15:54 10.0 °F 0.8 °F 1022.9 in North 46.3 mph 46.3 mph 53 % 0.0 in 193.0 W/m2 CLR
15:58 10.0 °F 0.8 °F 1022.9 in North 46.3 mph 46.3 mph 53 % 0.0 in 183.0 W/m2 CLR
15:59 10.0 °F 0.8 °F 1022.9 in NNW 46.3 mph 46.3 mph 53 % 0.0 in 178.0 W/m2 CLR
16:04 9.4 °F 0.6 °F 1023.2 in NNW 31.5 mph 31.5 mph 54 % 0.0 in 163.0 W/m2 CLR
16:05 9.4 °F 0.6 °F 1023.2 in North 31.5 mph 31.5 mph 54 % 0.0 in 163.0 W/m2 CLR
16:10 9.4 °F 0.8 °F 1023.2 in North 44.4 mph 44.4 mph 55 % 0.0 in 148.0 W/m2 CLR
16:11 9.4 °F 0.8 °F 1023.2 in North 48.1 mph 48.1 mph 55 % 0.0 in 142.0 W/m2 CLR
16:12 9.4 °F 0.8 °F 1023.2 in North 45.1 mph 45.1 mph 55 % 0.0 in 142.0 W/m2 CLR
16:17 9.4 °F 1.1 °F 1023.2 in North 38.9 mph 38.9 mph 56 % 0.0 in 128.0 W/m2 CLR
16:18 9.4 °F 1.1 °F 1023.2 in NNW 38.9 mph 38.9 mph 56 % 0.0 in 127.0 W/m2 CLR
16:23 9.4 °F 1.1 °F 1023.2 in North 42.6 mph 42.6 mph 56 % 0.0 in 109.0 W/m2 CLR
16:28 9.4 °F 0.6 °F 1023.2 in North 48.1 mph 48.1 mph 54 % 0.0 in 97.0 W/m2 CLR
16:33 9.4 °F 0.6 °F 1023.6 in North 44.4 mph 44.4 mph 54 % 0.0 in 86.0 W/m2 CLR
16:35 9.4 °F 0.6 °F 1023.2 in North 48.1 mph 48.1 mph 54 % 0.0 in 81.0 W/m2 CLR
16:40 8.9 °F 0.1 °F 1023.2 in NNW 38.9 mph 38.9 mph 54 % 0.0 in 62.0 W/m2 SCT
16:41 8.9 °F 0.1 °F 1023.2 in North 37.0 mph 37.0 mph 54 % 0.0 in 62.0 W/m2 SCT
16:45 8.9 °F 0.3 °F 1023.6 in North 40.7 mph 40.7 mph 55 % 0.0 in 51.0 W/m2 SCT
16:50 8.9 °F 0.3 °F 1023.6 in North 42.6 mph 42.6 mph 55 % 0.0 in 40.0 W/m2 BKN
16:56 8.9 °F 0.6 °F 1023.6 in North 42.6 mph 42.6 mph 56 % 0.0 in 32.0 W/m2 BKN
17:01 8.9 °F 0.8 °F 1023.6 in North 48.1 mph 48.1 mph 57 % 0.0 in 25.0 W/m2 BKN
17:02 8.9 °F 0.8 °F 1023.6 in North 46.3 mph 46.3 mph 57 % 0.0 in 21.0 W/m2 BKN
17:07 8.9 °F 1.1 °F 1023.6 in NNW 37.0 mph 37.0 mph 58 % 0.0 in 16.0 W/m2 BKN
17:08 8.9 °F 1.1 °F 1023.6 in NNW 37.0 mph 37.0 mph 58 % 0.0 in 16.0 W/m2 BKN
17:11 8.9 °F 1.3 °F 1023.9 in NNW 40.2 mph 40.2 mph 59 % 0.0 in 12.0 W/m2 BKN
17:13 8.3 °F 0.8 °F 1023.9 in NNW 40.7 mph 40.7 mph 59 % 0.0 in 12.0 W/m2 BKN
17:18 8.3 °F 1.0 °F 1023.6 in NNW 37.0 mph 37.0 mph 60 % 0.0 in 11.0 W/m2 BKN
17:23 8.3 °F 1.2 °F 1023.9 in NNW 40.7 mph 40.7 mph 61 % 0.0 in 9.0 W/m2 BKN
17:25 8.3 °F 1.2 °F 1023.9 in NNW 33.3 mph 33.3 mph 61 % 0.0 in 7.0 W/m2 BKN
17:28 8.3 °F 1.2 °F 1023.9 in NNW 31.5 mph 31.5 mph 61 % 0.0 in 7.0 W/m2 BKN
17:30 8.3 °F 1.4 °F 1023.9 in NNW 44.4 mph 44.4 mph 62 % 0.0 in 5.0 W/m2 OVC
17:35 7.8 °F 1.2 °F 1023.9 in North 51.8 mph 51.8 mph 63 % 0.0 in 0.0 W/m2 OVC
17:37 7.8 °F 1.2 °F 1023.9 in NNW 37.0 mph 37.0 mph 63 % 0.0 in 0.0 W/m2 OVC
17:42 7.8 °F 1.4 °F 1023.9 in NNW 42.6 mph 42.6 mph 64 % 0.0 in 0.0 W/m2 CLR
17:43 7.8 °F 1.4 °F 1024.3 in NNW 40.7 mph 40.7 mph 64 % 0.0 in 0.0 W/m2 CLR
17:48 7.8 °F 1.4 °F 1024.3 in North 35.4 mph 35.4 mph 64 % 0.0 in 0.0 W/m2 CLR
17:49 7.8 °F 1.4 °F 1024.3 in North 35.2 mph 35.2 mph 64 % 0.0 in 0.0 W/m2 CLR
17:54 7.8 °F 1.6 °F 1024.3 in NNW 42.6 mph 42.6 mph 65 % 0.0 in 0.0 W/m2 CLR
17:55 7.8 °F 1.6 °F 1024.3 in NNW 44.4 mph 44.4 mph 65 % 0.0 in 0.0 W/m2 CLR
17:58 7.8 °F 1.6 °F 1024.3 in North 42.6 mph 42.6 mph 65 % 0.0 in 0.0 W/m2 CLR
18:01 7.8 °F 1.8 °F 1024.3 in NNW 38.9 mph 38.9 mph 66 % 0.0 in 0.0 W/m2 CLR
18:05 7.8 °F 1.8 °F 1024.3 in NNW 46.3 mph 46.3 mph 66 % 0.0 in 0.0 W/m2 CLR
18:06 7.8 °F 1.8 °F 1024.3 in NNW 35.4 mph 35.4 mph 66 % 0.0 in 0.0 W/m2 CLR
18:11 7.8 °F 1.8 °F 1024.6 in NNW 33.3 mph 33.3 mph 66 % 0.0 in 0.0 W/m2 CLR
18:13 7.8 °F 2.1 °F 1024.6 in North 38.9 mph 38.9 mph 67 % 0.0 in 0.0 W/m2 CLR
18:18 7.8 °F 2.1 °F 1024.6 in North 44.4 mph 44.4 mph 67 % 0.0 in 0.0 W/m2 CLR
18:19 7.8 °F 2.1 °F 1024.6 in North 38.9 mph 38.9 mph 67 % 0.0 in 0.0 W/m2 CLR
18:24 7.2 °F 1.7 °F 1024.6 in North 38.9 mph 38.9 mph 68 % 0.0 in 0.0 W/m2 CLR
18:26 7.2 °F 1.7 °F 1024.6 in NNW 27.8 mph 27.8 mph 68 % 0.0 in 0.0 W/m2 CLR
18:31 7.2 °F 1.7 °F 1024.6 in NNW 31.5 mph 31.5 mph 68 % 0.0 in 0.0 W/m2 CLR
18:33 7.2 °F 1.7 °F 1024.6 in NNW 31.5 mph 31.5 mph 68 % 0.0 in 0.0 W/m2 CLR
18:34 7.2 °F 1.7 °F 1024.6 in NW 38.9 mph 38.9 mph 68 % 0.0 in 0.0 W/m2 CLR
18:39 7.2 °F 1.7 °F 1024.9 in NNW 27.4 mph 27.4 mph 68 % 0.0 in 0.0 W/m2 CLR
18:44 7.2 °F 1.9 °F 1024.9 in North 25.9 mph 25.9 mph 69 % 0.0 in 0.0 W/m2 CLR
18:49 7.2 °F 1.9 °F 1025.3 in NW 31.5 mph 31.5 mph 69 % 0.0 in 0.0 W/m2 CLR
18:50 7.2 °F 1.9 °F 1024.9 in NNW 33.3 mph 33.3 mph 69 % 0.0 in 0.0 W/m2 CLR
18:55 6.7 °F 1.4 °F 1025.3 in NW 31.5 mph 31.5 mph 69 % 0.0 in 0.0 W/m2 CLR
18:57 6.7 °F 1.4 °F 1025.3 in NNW 29.6 mph 29.6 mph 69 % 0.0 in 0.0 W/m2 CLR
19:01 6.7 °F 1.4 °F 1025.3 in North 30.6 mph 30.6 mph 69 % 0.0 in 0.0 W/m2 CLR
19:06 6.7 °F 1.4 °F 1025.3 in North 31.5 mph 31.5 mph 69 % 0.0 in 0.0 W/m2 CLR
19:08 6.7 °F 1.4 °F 1025.3 in NNW 29.6 mph 29.6 mph 69 % 0.0 in 0.0 W/m2 CLR
19:12 6.7 °F 1.4 °F 1025.3 in NNW 37.0 mph 37.0 mph 69 % 0.0 in 0.0 W/m2 CLR
19:13 6.7 °F 1.6 °F 1025.3 in NNW 37.0 mph 37.0 mph 70 % 0.0 in 0.0 W/m2 CLR
19:18 6.7 °F 1.4 °F 1025.6 in NW 25.9 mph 25.9 mph 69 % 0.0 in 0.0 W/m2 CLR
19:22 6.7 °F 1.6 °F 1025.6 in NW 24.1 mph 24.1 mph 70 % 0.0 in 0.0 W/m2 CLR
19:24 6.7 °F 1.6 °F 1025.6 in NW 25.9 mph 25.9 mph 70 % 0.0 in 0.0 W/m2 CLR
19:29 6.7 °F 1.6 °F 1025.6 in NW 25.7 mph 25.7 mph 70 % 0.0 in 0.0 W/m2 CLR
19:34 6.7 °F 1.8 °F 1025.6 in NNW 25.9 mph 25.9 mph 71 % 0.0 in 0.0 W/m2 CLR
19:35 6.7 °F 1.8 °F 1025.6 in NNW 25.9 mph 25.9 mph 71 % 0.0 in 0.0 W/m2 CLR
19:40 6.7 °F 1.8 °F 1026.0 in NNW 31.5 mph 31.5 mph 71 % 0.0 in 0.0 W/m2 CLR
19:41 6.7 °F 1.8 °F 1026.0 in NNW 35.2 mph 35.2 mph 71 % 0.0 in 0.0 W/m2 CLR
19:46 6.7 °F 1.8 °F 1026.0 in NNW 25.9 mph 25.9 mph 71 % 0.0 in 0.0 W/m2 CLR
19:51 6.1 °F 1.2 °F 1026.0 in NW 29.0 mph 29.0 mph 71 % 0.0 in 0.0 W/m2 CLR
19:55 6.1 °F 1.2 °F 1026.0 in NW 25.9 mph 25.9 mph 71 % 0.0 in 0.0 W/m2 CLR
19:57 6.1 °F 1.2 °F 1026.0 in NW 22.2 mph 22.2 mph 71 % 0.0 in 0.0 W/m2 CLR
20:01 6.1 °F 1.2 °F 1026.0 in NW 22.5 mph 22.5 mph 71 % 0.0 in 0.0 W/m2 CLR
20:03 6.1 °F 1.2 °F 1026.0 in NW 27.4 mph 27.4 mph 71 % 0.0 in 0.0 W/m2 CLR
20:08 6.1 °F 1.4 °F 1026.0 in NW 37.0 mph 37.0 mph 72 % 0.0 in 0.0 W/m2 CLR
20:09 6.1 °F 1.4 °F 1026.0 in NNW 29.0 mph 29.0 mph 72 % 0.0 in 0.0 W/m2 CLR
20:14 6.1 °F 1.6 °F 1026.0 in North 37.0 mph 37.0 mph 73 % 0.0 in 0.0 W/m2 CLR
20:15 6.1 °F 1.6 °F 1026.0 in NNW 32.2 mph 32.2 mph 73 % 0.0 in 0.0 W/m2 CLR
20:20 6.1 °F 1.6 °F 1026.3 in NW 37.0 mph 37.0 mph 73 % 0.0 in 0.0 W/m2 CLR
20:22 6.1 °F 1.6 °F 1026.3 in NW 40.7 mph 40.7 mph 73 % 0.0 in 0.0 W/m2 CLR
20:27 6.1 °F 1.6 °F 1026.3 in WNW 25.9 mph 25.9 mph 73 % 0.0 in 0.0 W/m2 CLR
20:32 6.1 °F 1.6 °F 1026.3 in NNW 25.9 mph 25.9 mph 73 % 0.0 in 0.0 W/m2 CLR
20:37 5.6 °F 1.3 °F 1026.6 in NW 35.2 mph 35.2 mph 74 % 0.0 in 0.0 W/m2 CLR
20:38 5.6 °F 1.3 °F 1026.3 in NW 29.6 mph 29.6 mph 74 % 0.0 in 0.0 W/m2 CLR
20:43 6.1 °F 1.8 °F 1026.6 in North 35.2 mph 35.2 mph 74 % 0.0 in 0.0 W/m2 CLR
20:45 6.1 °F 1.8 °F 1026.6 in NW 25.9 mph 25.9 mph 74 % 0.0 in 0.0 W/m2 CLR
20:48 6.1 °F 1.8 °F 1026.6 in NNW 20.4 mph 20.4 mph 74 % 0.0 in 0.0 W/m2 CLR
20:51 5.6 °F 1.3 °F 1026.6 in NNW 20.4 mph 20.4 mph 74 % 0.0 in 0.0 W/m2 CLR
20:55 5.6 °F 1.3 °F 1026.6 in NNW 24.1 mph 24.1 mph 74 % 0.0 in 0.0 W/m2 CLR
20:57 5.6 °F 1.3 °F 1026.6 in NW 31.5 mph 31.5 mph 74 % 0.0 in 0.0 W/m2 CLR
21:02 5.6 °F 1.3 °F 1027.0 in NW 20.4 mph 20.4 mph 74 % 0.0 in 0.0 W/m2 CLR
21:03 5.6 °F 1.3 °F 1027.0 in NW 24.1 mph 24.1 mph 74 % 0.0 in 0.0 W/m2 CLR
21:08 5.6 °F 1.3 °F 1027.0 in North 25.9 mph 25.9 mph 74 % 0.0 in 0.0 W/m2 CLR
21:09 5.6 °F 1.3 °F 1027.0 in NNW 25.9 mph 25.9 mph 74 % 0.0 in 0.0 W/m2 CLR
21:13 5.6 °F 1.3 °F 1027.0 in WNW 24.1 mph 24.1 mph 74 % 0.0 in 0.0 W/m2 CLR
21:15 5.6 °F 1.3 °F 1027.0 in NW 27.4 mph 27.4 mph 74 % 0.0 in 0.0 W/m2 CLR
21:20 5.6 °F 1.3 °F 1027.0 in NW 25.9 mph 25.9 mph 74 % 0.0 in 0.0 W/m2 CLR
21:25 5.0 °F 0.7 °F 1027.3 in NW 31.5 mph 31.5 mph 74 % 0.0 in 0.0 W/m2 CLR
21:26 5.0 °F 0.7 °F 1027.0 in NNW 27.4 mph 27.4 mph 74 % 0.0 in 0.0 W/m2 CLR
21:31 5.6 °F 1.3 °F 1027.0 in NW 22.2 mph 22.2 mph 74 % 0.0 in 0.0 W/m2 CLR
21:36 5.6 °F 1.4 °F 1027.0 in NW 22.2 mph 22.2 mph 75 % 0.0 in 0.0 W/m2 CLR
21:37 5.0 °F 0.9 °F 1027.0 in NW 22.2 mph 22.2 mph 75 % 0.0 in 0.0 W/m2 CLR
21:39 5.6 °F 1.4 °F 1027.0 in NW 24.1 mph 24.1 mph 75 % 0.0 in 0.0 W/m2 CLR
21:44 5.0 °F 0.9 °F 1027.0 in NNW 31.5 mph 31.5 mph 75 % 0.0 in 0.0 W/m2 CLR
21:45 5.0 °F 0.9 °F 1027.0 in NNW 27.8 mph 27.8 mph 75 % 0.0 in 0.0 W/m2 CLR
21:48 5.0 °F 0.9 °F 1027.0 in NW 25.9 mph 25.9 mph 75 % 0.0 in 0.0 W/m2 CLR
21:53 5.0 °F 0.9 °F 1027.3 in NW 22.5 mph 22.5 mph 75 % 0.0 in 0.0 W/m2 CLR
21:58 5.0 °F 0.9 °F 1027.7 in NW 19.3 mph 19.3 mph 75 % 0.0 in 0.0 W/m2 CLR
21:59 5.0 °F 0.9 °F 1027.7 in NW 27.8 mph 27.8 mph 75 % 0.0 in 0.0 W/m2 CLR
22:02 5.0 °F 0.9 °F 1027.7 in NW 22.2 mph 22.2 mph 75 % 0.0 in 0.0 W/m2 CLR
22:05 5.0 °F 0.9 °F 1027.7 in NW 27.8 mph 27.8 mph 75 % 0.0 in 0.0 W/m2 CLR
22:09 5.0 °F 0.9 °F 1027.7 in NW 27.8 mph 27.8 mph 75 % 0.0 in 0.0 W/m2 CLR
22:11 5.0 °F 0.9 °F 1027.7 in NW 27.8 mph 27.8 mph 75 % 0.0 in 0.0 W/m2 CLR
22:16 5.0 °F 0.9 °F 1027.7 in NNW 27.8 mph 27.8 mph 75 % 0.0 in 0.0 W/m2 CLR
22:17 5.0 °F 0.9 °F 1027.7 in NNW 27.8 mph 27.8 mph 75 % 0.0 in 0.0 W/m2 CLR
22:19 5.0 °F 0.9 °F 1027.7 in NW 29.6 mph 29.6 mph 75 % 0.0 in 0.0 W/m2 CLR
22:22 5.0 °F 0.9 °F 1027.7 in NW 25.9 mph 25.9 mph 75 % 0.0 in 0.0 W/m2 CLR
22:27 5.0 °F 0.9 °F 1027.7 in NNW 22.5 mph 22.5 mph 75 % 0.0 in 0.0 W/m2 CLR
22:28 5.0 °F 0.9 °F 1027.7 in NW 22.2 mph 22.2 mph 75 % 0.0 in 0.0 W/m2 CLR
22:32 5.0 °F 1.1 °F 1027.7 in NW 18.5 mph 18.5 mph 76 % 0.0 in 0.0 W/m2 CLR
22:33 5.0 °F 1.1 °F 1028.0 in WNW 27.8 mph 27.8 mph 76 % 0.0 in 0.0 W/m2 CLR
22:38 5.0 °F 0.9 °F 1027.7 in NW 24.1 mph 24.1 mph 75 % 0.0 in 0.0 W/m2 CLR
22:39 5.0 °F 0.9 °F 1027.7 in NW 30.6 mph 30.6 mph 75 % 0.0 in 0.0 W/m2 CLR
22:44 5.0 °F 1.1 °F 1028.0 in NW 31.5 mph 31.5 mph 76 % 0.0 in 0.0 W/m2 CLR
22:45 5.0 °F 1.1 °F 1028.0 in NNW 38.9 mph 38.9 mph 76 % 0.0 in 0.0 W/m2 CLR
22:50 5.0 °F 1.1 °F 1027.7 in NW 33.3 mph 33.3 mph 76 % 0.0 in 0.0 W/m2 CLR
22:51 5.0 °F 1.1 °F 1027.7 in NW 31.5 mph 31.5 mph 76 % 0.0 in 0.0 W/m2 CLR
22:56 5.0 °F 1.1 °F 1028.0 in North 25.9 mph 25.9 mph 76 % 0.0 in 0.0 W/m2 CLR
22:57 5.0 °F 1.1 °F 1028.0 in NNW 22.2 mph 22.2 mph 76 % 0.0 in 0.0 W/m2 CLR
23:02 5.0 °F 1.1 °F 1028.0 in NW 18.5 mph 18.5 mph 76 % 0.0 in 0.0 W/m2 CLR
23:07 5.0 °F 1.1 °F 1028.0 in NNW 31.5 mph 31.5 mph 76 % 0.0 in 0.0 W/m2 CLR
23:08 4.4 °F 0.6 °F 1028.0 in NW 27.8 mph 27.8 mph 76 % 0.0 in 0.0 W/m2 CLR
23:13 4.4 °F 0.6 °F 1028.3 in NNW 18.5 mph 18.5 mph 76 % 0.0 in 0.0 W/m2 CLR
23:15 4.4 °F 0.6 °F 1028.3 in NNW 29.6 mph 29.6 mph 76 % 0.0 in 0.0 W/m2 CLR
23:18 4.4 °F 0.6 °F 1028.3 in NNW 22.2 mph 22.2 mph 76 % 0.0 in 0.0 W/m2 CLR
23:23 4.4 °F 0.6 °F 1028.3 in NW 31.5 mph 31.5 mph 76 % 0.0 in 0.0 W/m2 CLR
23:25 4.4 °F 0.6 °F 1028.3 in NNW 24.1 mph 24.1 mph 76 % 0.0 in 0.0 W/m2 CLR
23:27 4.4 °F 0.6 °F 1028.3 in NW 25.9 mph 25.9 mph 76 % 0.0 in 0.0 W/m2 CLR
23:32 4.4 °F 0.6 °F 1028.3 in North 9.3 mph 9.3 mph 76 % 0.0 in 0.0 W/m2 CLR
23:35 4.4 °F 0.6 °F 1028.7 in North 14.8 mph 14.8 mph 76 % 0.0 in 0.0 W/m2 CLR
23:38 4.4 °F 0.6 °F 1028.7 in NNW 13.0 mph 13.0 mph 76 % 0.0 in 0.0 W/m2 CLR
23:43 4.4 °F 0.6 °F 1028.7 in NW 22.2 mph 22.2 mph 76 % 0.0 in 0.0 W/m2 CLR
23:48 4.4 °F 0.4 °F 1028.7 in NNW 18.5 mph 18.5 mph 75 % 0.0 in 0.0 W/m2 CLR
23:52 4.4 °F 0.6 °F 1028.7 in NW 20.4 mph 20.4 mph 76 % 0.0 in 0.0 W/m2 CLR
23:53 4.4 °F 0.4 °F 1028.7 in NNW 16.7 mph 16.7 mph 75 % 0.0 in 0.0 W/m2 CLR
23:54 4.4 °F 0.4 °F 1028.7 in NNW 24.1 mph 24.1 mph 75 % 0.0 in 0.0 W/m2 CLR
23:59 4.4 °F 0.6 °F 1029.0 in NW 18.5 mph 18.5 mph 76 % 0.0 in 0.0 W/m2 CLR
Lo Temps de Massalio
Compliments of Weather Underground - 1.75 mb